Time;durP1;ratioP1;P1;durP2;ratioP2;P2;SDS_P1;SDS_P2;PMS_P1;PMS_P2;Temp;Humidity;BMP_temperature;BMP_pressure;BME280_temperature;BME280_humidity;BME280_pressure;Samples;Min_cycle;Max_cycle;Signal;HPM_P1;HPM_P2
2022/01/10 00:07:12;;;;;;;15.77;3.10;;;3.00;99.90;;;;;;6717593;88;20648;-75
2022/01/10 00:17:13;;;;;;;8.75;3.05;;;2.90;99.90;;;;;;6713349;88;20601;-75
2022/01/10 00:27:13;;;;;;;14.05;3.42;;;2.80;99.90;;;;;;6719431;88;20215;-75
2022/01/10 00:37:14;;;;;;;11.90;3.78;;;2.70;99.90;;;;;;6717699;88;20698;-75
2022/01/10 00:47:14;;;;;;;11.20;3.90;;;2.50;99.90;;;;;;6716457;88;20643;-76
2022/01/10 00:57:15;;;;;;;13.50;3.80;;;2.30;99.90;;;;;;6714858;88;20193;-75
2022/01/10 01:07:16;;;;;;;11.38;3.22;;;2.00;99.90;;;;;;6718210;88;20629;-75
2022/01/10 01:17:34;;;;;;;11.98;3.42;;;1.90;99.90;;;;;;6722633;88;20519;-75
2022/01/10 01:27:35;;;;;;;16.40;3.30;;;1.70;99.90;;;;;;6719750;88;20175;-75
2022/01/10 01:37:37;;;;;;;12.07;3.60;;;1.90;99.90;;;;;;6723963;88;20178;-75
2022/01/10 01:47:39;;;;;;;10.43;3.30;;;1.60;99.90;;;;;;6732217;88;20204;-74
2022/01/10 01:57:39;;;;;;;13.55;3.00;;;1.70;99.90;;;;;;6724469;88;20707;-76
2022/01/10 02:07:40;;;;;;;9.50;2.78;;;1.50;99.90;;;;;;6722791;88;20182;-75
2022/01/10 02:17:45;;;;;;;12.63;3.10;;;1.20;99.90;;;;;;6723224;88;20334;-74
2022/01/10 02:27:46;;;;;;;12.68;3.08;;;1.20;99.90;;;;;;6727079;88;20320;-76
2022/01/10 02:37:48;;;;;;;11.65;2.92;;;1.20;99.90;;;;;;6729513;88;20205;-76
2022/01/10 02:47:49;;;;;;;10.80;3.25;;;1.20;99.90;;;;;;6730270;88;20185;-76
2022/01/10 02:57:49;;;;;;;17.40;3.50;;;1.30;99.90;;;;;;6723483;88;20313;-75
2022/01/10 03:07:52;;;;;;;10.18;2.75;;;1.20;99.90;;;;;;6721443;88;20181;-75
2022/01/10 03:17:53;;;;;;;10.85;3.10;;;1.20;99.90;;;;;;6725789;88;20193;-76
2022/01/10 03:27:53;;;;;;;10.63;2.85;;;0.70;99.90;;;;;;6724601;88;20717;-75
2022/01/10 03:37:54;;;;;;;10.07;3.20;;;0.90;99.90;;;;;;6733944;88;20207;-75
2022/01/10 03:47:54;;;;;;;10.02;3.08;;;0.60;99.90;;;;;;6725861;88;20200;-75
2022/01/10 03:57:55;;;;;;;12.70;3.15;;;0.70;99.90;;;;;;6729011;88;20215;-74
2022/01/10 04:07:56;;;;;;;15.63;3.60;;;0.60;99.90;;;;;;6739195;88;20190;-74
2022/01/10 04:17:59;;;;;;;8.75;3.08;;;0.60;99.90;;;;;;6726341;88;20321;-75
2022/01/10 04:28:00;;;;;;;12.65;3.40;;;0.40;99.90;;;;;;6727803;88;20198;-74
2022/01/10 04:38:00;;;;;;;13.13;3.22;;;0.40;99.90;;;;;;6731816;88;20689;-74
2022/01/10 04:48:01;;;;;;;12.07;3.42;;;0.40;99.90;;;;;;6729890;88;20611;-75
2022/01/10 04:58:01;;;;;;;10.57;3.42;;;0.40;99.90;;;;;;6718359;88;20576;-76
2022/01/10 05:08:02;;;;;;;10.27;3.50;;;0.00;99.90;;;;;;6725787;88;20806;-76
2022/01/10 05:18:02;;;;;;;11.02;3.65;;;0.00;99.90;;;;;;6728812;88;20162;-76
2022/01/10 05:28:08;;;;;;;15.88;3.90;;;0.10;99.90;;;;;;6733415;88;20186;-77
2022/01/10 05:38:08;;;;;;;10.63;3.07;;;0.10;99.90;;;;;;6725725;88;20263;-75
2022/01/10 05:48:12;;;;;;;11.60;3.65;;;0.10;99.90;;;;;;6726078;88;20746;-75
2022/01/10 05:58:13;;;;;;;11.18;3.53;;;0.20;99.90;;;;;;6719767;88;20189;-76
2022/01/10 06:08:14;;;;;;;11.20;3.65;;;0.30;99.90;;;;;;6717377;88;20195;-76
2022/01/10 06:18:14;;;;;;;12.27;3.90;;;0.50;99.90;;;;;;6726450;88;20214;-75
2022/01/10 06:28:15;;;;;;;10.57;3.70;;;0.60;99.90;;;;;;6719440;88;20190;-76
2022/01/10 06:38:15;;;;;;;14.25;3.92;;;0.80;99.90;;;;;;6721667;88;20205;-75
2022/01/10 06:48:16;;;;;;;10.10;4.03;;;0.80;99.90;;;;;;6718348;88;20192;-75
2022/01/10 06:58:17;;;;;;;11.05;4.20;;;1.00;99.90;;;;;;6715416;88;20646;-76
2022/01/10 07:08:17;;;;;;;13.45;4.12;;;1.20;99.90;;;;;;6707805;88;20694;-75
2022/01/10 07:18:18;;;;;;;15.60;4.25;;;1.30;99.90;;;;;;6714595;88;20189;-74
2022/01/10 07:28:19;;;;;;;16.40;5.07;;;1.50;99.90;;;;;;6714347;88;20194;-75
2022/01/10 07:38:19;;;;;;;17.45;4.45;;;1.60;99.90;;;;;;6715882;88;21099;-75
2022/01/10 07:48:20;;;;;;;12.32;4.40;;;1.70;99.90;;;;;;6710610;88;20262;-75
2022/01/10 07:58:21;;;;;;;8.82;4.50;;;1.60;99.90;;;;;;6712569;88;20200;-76
2022/01/10 08:08:22;;;;;;;10.13;4.47;;;1.60;99.90;;;;;;6721422;88;20781;-75
2022/01/10 08:18:22;;;;;;;10.82;4.30;;;1.70;99.90;;;;;;6724727;88;20568;-75
2022/01/10 08:28:23;;;;;;;13.77;4.75;;;1.70;99.90;;;;;;6716813;88;20319;-76
2022/01/10 08:38:24;;;;;;;10.52;4.40;;;1.80;99.90;;;;;;6714243;88;20677;-75
2022/01/10 08:48:24;;;;;;;9.55;4.62;;;2.00;99.90;;;;;;6728223;88;20193;-76
2022/01/10 08:58:32;;;;;;;10.55;4.75;;;2.30;99.90;;;;;;6725732;88;20251;-76
2022/01/10 09:08:36;;;;;;;8.60;4.28;;;2.30;99.90;;;;;;6729275;88;20537;-77
2022/01/10 09:18:36;;;;;;;10.57;5.18;;;2.40;99.90;;;;;;6734414;88;20280;-77
2022/01/10 09:28:37;;;;;;;8.98;4.93;;;2.50;99.90;;;;;;6731269;88;20624;-76
2022/01/10 09:38:37;;;;;;;11.88;5.47;;;2.70;99.90;;;;;;6734460;88;20185;-76
2022/01/10 09:48:38;;;;;;;12.00;5.20;;;2.90;99.90;;;;;;6721083;88;20315;-76
2022/01/10 09:58:38;;;;;;;13.40;5.30;;;3.10;99.90;;;;;;6720714;88;20224;-76
2022/01/10 10:08:39;;;;;;;16.77;5.43;;;3.20;99.90;;;;;;6724490;88;20193;-76
2022/01/10 10:18:40;;;;;;;14.02;5.07;;;3.70;99.90;;;;;;6708046;88;20228;-76
2022/01/10 10:28:41;;;;;;;9.73;4.40;;;4.70;99.90;;;;;;6710134;88;20206;-76
2022/01/10 10:38:42;;;;;;;13.25;4.65;;;5.20;99.90;;;;;;6719476;88;20666;-77
2022/01/10 10:48:45;;;;;;;12.18;4.68;;;6.20;99.90;;;;;;6716858;88;20217;-76
2022/01/10 10:58:46;;;;;;;15.05;5.03;;;7.30;99.90;;;;;;6715613;88;20252;-75
2022/01/10 11:08:47;;;;;;;11.80;5.63;;;6.90;99.90;;;;;;6715452;88;20209;-77
2022/01/10 11:18:49;;;;;;;18.60;5.93;;;7.00;99.90;;;;;;6724995;88;20649;-75
2022/01/10 11:28:52;;;;;;;20.90;7.05;;;6.40;99.90;;;;;;6719133;88;20226;-75
2022/01/10 11:38:58;;;;;;;17.85;5.55;;;6.50;99.90;;;;;;6713712;88;20752;-76
2022/01/10 11:49:00;;;;;;;13.62;6.20;;;7.90;99.90;;;;;;6717712;88;20197;-75
2022/01/10 11:59:28;;;;;;;14.07;5.22;;;7.50;99.90;;;;;;6716544;88;20315;-76
2022/01/10 12:09:30;;;;;;;12.82;5.47;;;8.50;99.90;;;;;;6717054;88;20804;-75
2022/01/10 12:19:30;;;;;;;11.80;5.05;;;8.20;99.90;;;;;;6713747;88;20210;-75
2022/01/10 12:29:31;;;;;;;13.60;4.75;;;8.90;99.90;;;;;;6697524;88;20202;-75
2022/01/10 12:39:37;;;;;;;11.23;5.00;;;10.10;99.90;;;;;;6711127;88;20189;-75
2022/01/10 12:49:39;;;;;;;10.60;4.45;;;8.90;99.90;;;;;;6708428;88;20203;-76
2022/01/10 13:00:21;;;;;;;12.20;4.53;;;10.20;99.90;;;;;;6716911;77;20211;-76
2022/01/10 13:10:24;;;;;;;13.95;4.82;;;12.30;99.90;;;;;;6720757;88;20186;-75
2022/01/10 13:20:27;;;;;;;13.43;4.82;;;12.50;99.90;;;;;;6702996;88;20191;-77
2022/01/10 13:30:28;;;;;;;14.27;5.53;;;15.30;97.70;;;;;;6712001;88;20651;-77
2022/01/10 13:40:41;;;;;;;11.20;4.97;;;15.60;94.70;;;;;;6717638;88;20240;-78
2022/01/10 13:50:44;;;;;;;12.32;5.25;;;17.50;91.40;;;;;;6717595;88;20233;-77
2022/01/10 14:00:55;;;;;;;12.98;5.15;;;17.40;90.20;;;;;;6713901;88;20209;-76
2022/01/10 14:10:56;;;;;;;12.15;5.03;;;17.30;88.40;;;;;;6702494;88;20607;-78
2022/01/10 14:20:56;;;;;;;14.65;5.82;;;14.10;92.10;;;;;;6699460;88;20255;-78
2022/01/10 14:30:57;;;;;;;13.48;5.85;;;13.20;94.50;;;;;;6701207;88;20209;-76
2022/01/10 14:40:59;;;;;;;13.57;5.60;;;13.60;94.50;;;;;;6700572;88;20190;-76
2022/01/10 14:51:02;;;;;;;13.38;6.53;;;13.80;93.40;;;;;;6700955;88;20626;-76
2022/01/10 15:01:03;;;;;;;13.82;6.68;;;12.90;94.90;;;;;;6702499;88;20590;-78
2022/01/10 15:11:03;;;;;;;18.07;7.87;;;11.60;98.60;;;;;;6706405;88;20279;-77
2022/01/10 15:21:05;;;;;;;18.92;7.62;;;10.30;99.90;;;;;;6713376;88;20541;-76
2022/01/10 15:31:06;;;;;;;13.25;6.90;;;8.40;99.90;;;;;;6715030;88;20194;-76
2022/01/10 15:41:07;;;;;;;18.70;8.05;;;7.60;99.90;;;;;;6714876;88;20658;-76
2022/01/10 15:51:08;;;;;;;15.70;6.87;;;7.00;99.90;;;;;;6715803;88;20346;-76
2022/01/10 16:01:10;;;;;;;22.20;7.78;;;6.10;99.90;;;;;;6710200;88;20307;-76
2022/01/10 16:11:11;;;;;;;18.92;8.48;;;5.40;99.90;;;;;;6713756;88;20225;-76
2022/01/10 16:21:12;;;;;;;22.50;9.00;;;4.90;99.90;;;;;;6717132;88;20684;-76
2022/01/10 16:31:13;;;;;;;20.00;7.95;;;4.50;99.90;;;;;;6719864;88;20222;-76
2022/01/10 16:41:15;;;;;;;20.70;9.18;;;4.10;99.90;;;;;;6725919;88;20661;-79
2022/01/10 16:51:16;;;;;;;21.85;9.35;;;3.80;99.90;;;;;;6729141;88;20181;-79
2022/01/10 17:01:16;;;;;;;23.92;10.10;;;3.60;99.90;;;;;;6727091;88;20211;-78
2022/01/10 17:11:17;;;;;;;21.62;9.52;;;3.30;99.90;;;;;;6725342;88;20950;-78
2022/01/10 17:21:17;;;;;;;23.20;10.20;;;3.00;99.90;;;;;;6716945;88;20244;-76
2022/01/10 17:31:18;;;;;;;25.90;10.27;;;2.60;99.90;;;;;;6729062;88;20660;-77
2022/01/10 17:41:18;;;;;;;30.23;12.68;;;2.10;99.90;;;;;;6721725;88;20237;-78
2022/01/10 17:51:25;;;;;;;34.85;13.77;;;2.00;99.90;;;;;;6708672;88;20219;-76
2022/01/10 18:01:26;;;;;;;32.47;13.70;;;1.90;99.90;;;;;;6714604;88;20180;-78
2022/01/10 18:11:26;;;;;;;32.83;13.13;;;1.70;99.90;;;;;;6714191;88;20233;-76
2022/01/10 18:21:27;;;;;;;32.35;12.45;;;1.30;99.90;;;;;;6713663;88;20642;-76
2022/01/10 18:31:27;;;;;;;40.28;14.50;;;1.10;99.90;;;;;;6719616;88;20220;-76
2022/01/10 18:41:29;;;;;;;50.47;17.95;;;0.70;99.90;;;;;;6713434;88;20651;-76
2022/01/10 18:51:30;;;;;;;60.35;17.98;;;0.80;99.90;;;;;;6710434;88;20693;-76
2022/01/10 19:01:30;;;;;;;50.85;16.77;;;0.90;99.90;;;;;;6749229;77;20213;-75
2022/01/10 19:11:31;;;;;;;50.60;16.23;;;0.90;99.90;;;;;;6741040;88;20225;-75
2022/01/10 19:21:35;;;;;;;40.90;13.95;;;0.90;99.90;;;;;;6740601;88;20193;-75
2022/01/10 19:31:35;;;;;;;53.50;19.08;;;0.90;99.90;;;;;;6734024;88;20248;-75
2022/01/10 19:41:36;;;;;;;50.00;16.70;;;1.00;99.90;;;;;;6729929;88;20287;-75
2022/01/10 19:51:37;;;;;;;44.83;16.23;;;1.10;99.90;;;;;;6740626;88;22075;-76
2022/01/10 20:01:37;;;;;;;34.83;13.25;;;1.00;99.90;;;;;;6747135;88;20211;-75
2022/01/10 20:11:42;;;;;;;46.90;17.67;;;1.00;99.90;;;;;;6748095;88;20199;-76
2022/01/10 20:21:43;;;;;;;46.30;15.73;;;1.10;99.90;;;;;;6735279;88;20216;-75
2022/01/10 20:31:43;;;;;;;50.40;17.17;;;1.20;99.90;;;;;;6728769;88;20192;-74
2022/01/10 20:41:44;;;;;;;44.37;16.33;;;1.20;99.90;;;;;;6746815;88;20229;-75
2022/01/10 20:51:45;;;;;;;45.38;16.83;;;1.30;99.90;;;;;;6740783;88;20751;-76
2022/01/10 21:01:45;;;;;;;40.38;16.02;;;1.30;99.90;;;;;;6740327;88;20780;-75
2022/01/10 21:11:48;;;;;;;36.85;15.23;;;1.30;99.90;;;;;;6740964;88;20227;-76
2022/01/10 21:21:48;;;;;;;33.38;13.93;;;1.30;99.90;;;;;;6739387;88;20200;-75
2022/01/10 21:31:49;;;;;;;40.25;15.93;;;1.20;99.90;;;;;;6737699;88;20199;-76
2022/01/10 21:41:49;;;;;;;35.90;14.57;;;1.10;99.90;;;;;;6739452;88;20240;-75
2022/01/10 21:51:50;;;;;;;37.83;14.82;;;1.30;99.90;;;;;;6728351;88;20214;-76
2022/01/10 22:01:50;;;;;;;38.47;13.20;;;1.40;99.90;;;;;;6732252;88;20245;-75
2022/01/10 22:11:51;;;;;;;33.13;13.27;;;1.50;99.90;;;;;;6729172;88;20186;-75
2022/01/10 22:21:51;;;;;;;34.03;13.15;;;1.40;99.90;;;;;;6730230;88;20539;-75
2022/01/10 22:31:52;;;;;;;34.97;14.73;;;1.40;99.90;;;;;;6740106;88;20250;-74
2022/01/10 22:41:53;;;;;;;37.20;14.60;;;1.40;99.90;;;;;;6731731;88;20230;-75
2022/01/10 22:51:53;;;;;;;34.80;14.23;;;1.40;99.90;;;;;;6733190;88;20705;-75
2022/01/10 23:01:54;;;;;;;28.70;12.82;;;1.50;99.90;;;;;;6733020;88;20605;-75
2022/01/10 23:11:56;;;;;;;25.20;11.30;;;1.30;99.90;;;;;;6736072;88;20204;-75
2022/01/10 23:21:57;;;;;;;31.33;12.57;;;1.10;99.90;;;;;;6733267;88;20615;-75
2022/01/10 23:31:57;;;;;;;27.48;11.35;;;1.10;99.90;;;;;;6732453;88;20250;-75
2022/01/10 23:41:58;;;;;;;32.42;13.50;;;1.10;99.90;;;;;;6740802;88;20230;-75
2022/01/10 23:52:00;;;;;;;31.83;12.02;;;1.00;99.90;;;;;;6729792;88;20605;-75
